createdAt,value
2019-03-09T00:00:18.903Z,67.47
2019-03-09T00:02:50.844Z,67.84
2019-03-09T00:05:22.694Z,67.76
2019-03-09T00:07:55.186Z,67.11
2019-03-09T00:10:25.797Z,67.01
2019-03-09T00:12:56.132Z,67.99
2019-03-09T00:15:26.954Z,68.07
2019-03-09T00:17:57.580Z,68.93
2019-03-09T00:20:32.191Z,69.41
2019-03-09T00:23:14.943Z,70.47
2019-03-09T00:26:05.444Z,73.23
2019-03-09T00:28:42.937Z,75.65
2019-03-09T00:31:21.002Z,77.64
2019-03-09T00:33:51.333Z,78.66
2019-03-09T00:36:43.694Z,79.61
2019-03-09T00:39:28.117Z,80.15
2019-03-09T00:41:58.672Z,80.29
2019-03-09T00:45:13.514Z,81.02
2019-03-09T00:47:49.097Z,81.27
2019-03-09T00:50:23.456Z,81.55
2019-03-09T00:52:56.025Z,81.96
2019-03-09T00:55:30.764Z,82.16
2019-03-09T00:58:02.764Z,82.40
2019-03-09T01:00:37.172Z,82.77
2019-03-09T01:03:12.638Z,83.01
2019-03-09T01:05:46.082Z,83.27
2019-03-09T01:08:27.340Z,83.45
2019-03-09T01:10:57.660Z,83.69
2019-03-09T01:13:31.028Z,83.87
2019-03-09T01:16:03.124Z,83.89
2019-03-09T01:18:37.594Z,83.91
2019-03-09T01:21:08.060Z,83.91
2019-03-09T01:23:39.671Z,84.12
2019-03-09T01:26:12.242Z,84.18
2019-03-09T01:28:48.043Z,84.27
2019-03-09T01:31:21.462Z,84.27
2019-03-09T01:34:00.476Z,84.40
2019-03-09T01:36:31.010Z,84.46
2019-03-09T01:39:05.673Z,84.60
2019-03-09T01:41:36.912Z,84.65
2019-03-09T01:44:07.599Z,84.46
2019-03-09T01:46:40.857Z,84.32
2019-03-09T01:49:12.943Z,84.44
2019-03-09T01:51:43.278Z,84.60
2019-03-09T01:54:22.921Z,84.75
2019-03-09T01:56:50.264Z,84.89
2019-03-09T01:59:38.318Z,85.00
2019-03-09T02:02:08.663Z,85.16
2019-03-09T02:04:40.158Z,85.24
2019-03-09T02:07:12.289Z,85.32
2019-03-09T02:09:44.521Z,85.43
2019-03-09T02:12:14.865Z,85.54
2019-03-09T02:14:47.896Z,85.60
2019-03-09T02:17:18.331Z,85.62
2019-03-09T02:19:57.028Z,85.72
2019-03-09T02:22:22.673Z,85.77
2019-03-09T02:25:21.753Z,85.78
2019-03-09T02:27:43.252Z,85.83
2019-03-09T02:30:15.198Z,85.87
2019-03-09T02:32:45.715Z,85.94
2019-03-09T02:35:20.324Z,86.00
2019-03-09T02:37:50.720Z,86.04
2019-03-09T02:40:23.522Z,86.13
2019-03-09T02:42:55.007Z,85.95
2019-03-09T02:45:28.135Z,85.95
2019-03-09T02:47:58.967Z,86.35
2019-03-09T02:50:32.762Z,86.42
2019-03-09T02:53:04.529Z,86.50
2019-03-09T02:55:36.169Z,86.52
2019-03-09T02:58:06.650Z,86.57
2019-03-09T03:01:23.232Z,86.63
2019-03-09T03:03:41.102Z,86.69
2019-03-09T03:06:17.012Z,86.76
2019-03-09T03:08:49.000Z,86.83
2019-03-09T03:11:32.298Z,86.86
2019-03-09T03:13:51.932Z,86.88
2019-03-09T03:16:23.122Z,86.90
2019-03-09T03:18:53.579Z,86.90
2019-03-09T03:21:25.907Z,86.89
2019-03-09T03:23:56.277Z,86.89
2019-03-09T03:26:35.319Z,86.89
2019-03-09T03:29:05.763Z,86.92
2019-03-09T03:31:38.633Z,86.92
2019-03-09T03:34:09.300Z,86.96
2019-03-09T03:36:41.256Z,86.96
2019-03-09T03:39:13.503Z,86.94
2019-03-09T03:41:47.925Z,86.93
2019-03-09T03:44:18.729Z,86.97
2019-03-09T03:46:52.536Z,86.96
2019-03-09T03:49:24.799Z,86.96
2019-03-09T03:52:03.687Z,86.99
2019-03-09T03:54:34.319Z,87.01
2019-03-09T03:57:06.176Z,86.98
2019-03-09T03:59:36.650Z,87.02
2019-03-09T04:02:16.593Z,87.09
2019-03-09T04:04:48.563Z,87.09
2019-03-09T04:07:21.058Z,87.06
2019-03-09T04:09:53.147Z,87.08
2019-03-09T04:12:27.594Z,87.13
2019-03-09T04:14:58.146Z,87.19
2019-03-09T04:17:29.244Z,87.23
2019-03-09T04:20:01.238Z,87.26
2019-03-09T04:22:35.736Z,87.29
2019-03-09T04:25:06.716Z,87.33
2019-03-09T04:27:37.397Z,87.37
2019-03-09T04:30:07.961Z,87.42
2019-03-09T04:32:47.997Z,87.47
2019-03-09T04:35:18.339Z,87.49
2019-03-09T04:40:40.472Z,87.62
2019-03-09T04:43:13.160Z,87.64
2019-03-09T04:45:43.559Z,87.67
2019-03-09T04:48:13.918Z,87.69
2019-03-09T04:50:45.945Z,87.73
2019-03-09T04:53:16.603Z,87.75
2019-03-09T04:55:47.059Z,87.74
2019-03-09T04:58:20.568Z,87.77
2019-03-09T05:00:50.947Z,87.78
2019-03-09T05:03:25.261Z,87.77
2019-03-09T05:05:55.744Z,87.78
2019-03-09T05:08:49.479Z,87.76
2019-03-09T05:11:25.181Z,87.73
2019-03-09T05:14:20.914Z,87.76
2019-03-09T05:16:52.473Z,87.75
2019-03-09T05:19:24.738Z,87.76
2019-03-09T05:21:56.140Z,87.77
2019-03-09T05:24:26.476Z,87.78
2019-03-09T05:26:58.135Z,87.79
2019-03-09T05:29:28.604Z,87.81
2019-03-09T05:32:06.496Z,87.86
2019-03-09T05:34:37.685Z,87.83
2019-03-09T05:37:11.320Z,87.83
2019-03-09T05:39:44.322Z,87.79
2019-03-09T05:42:14.740Z,87.76
2019-03-09T05:44:45.249Z,87.75
2019-03-09T05:47:15.602Z,87.78
2019-03-09T05:49:46.005Z,87.83
2019-03-09T05:52:40.777Z,87.82
2019-03-09T05:55:17.619Z,87.83
2019-03-09T05:57:53.069Z,87.87
2019-03-09T06:00:25.022Z,87.92
2019-03-09T06:03:10.005Z,88.00
2019-03-09T06:05:45.650Z,88.03
2019-03-09T06:08:21.422Z,88.03
2019-03-09T06:10:51.855Z,88.08
2019-03-09T06:13:29.532Z,88.16
2019-03-09T06:16:00.352Z,88.24
2019-03-09T06:18:32.756Z,88.29
2019-03-09T06:21:04.219Z,88.31
2019-03-09T06:23:36.686Z,88.41
2019-03-09T06:26:08.652Z,88.49
2019-03-09T06:28:43.639Z,88.56
2019-03-09T06:31:15.348Z,88.59
2019-03-09T06:33:48.099Z,88.66
2019-03-09T06:36:47.932Z,88.62
2019-03-09T06:39:31.924Z,88.50
2019-03-09T06:42:34.979Z,88.41
2019-03-09T06:45:10.639Z,88.25
2019-03-09T06:47:44.270Z,87.90
2019-03-09T06:50:16.749Z,87.66
2019-03-09T06:52:47.254Z,87.30
2019-03-09T06:55:19.066Z,86.87
2019-03-09T06:57:49.874Z,86.21
2019-03-09T07:00:41.163Z,85.40
2019-03-09T07:03:12.372Z,84.28
2019-03-09T07:05:53.029Z,82.99
2019-03-09T07:08:23.403Z,82.18
2019-03-09T07:11:01.223Z,81.67
2019-03-09T07:13:31.615Z,81.47
2019-03-09T07:16:05.776Z,81.38
2019-03-09T07:18:38.613Z,81.45
2019-03-09T07:21:19.253Z,81.31
2019-03-09T07:23:49.852Z,81.48
2019-03-09T07:26:27.478Z,81.22
2019-03-09T07:28:59.983Z,81.19
2019-03-09T07:31:35.717Z,81.04
2019-03-09T07:34:31.755Z,80.85
2019-03-09T07:37:02.130Z,80.89
2019-03-09T07:39:32.574Z,80.56
2019-03-09T07:42:02.917Z,80.28
2019-03-09T07:44:40.800Z,79.91
2019-03-09T07:47:13.903Z,79.68
2019-03-09T07:49:53.077Z,79.21
2019-03-09T07:52:37.074Z,78.93
2019-03-09T07:55:12.364Z,78.54
2019-03-09T07:57:42.871Z,77.92
2019-03-09T08:00:18.049Z,77.85
2019-03-09T08:02:48.945Z,77.36
2019-03-09T08:05:24.807Z,77.39
2019-03-09T08:07:55.435Z,76.93
2019-03-09T08:10:50.569Z,76.93
2019-03-09T08:13:41.932Z,76.78
2019-03-09T08:16:14.201Z,76.90
2019-03-09T08:18:47.000Z,76.63
2019-03-09T08:21:17.831Z,76.30
2019-03-09T08:23:48.454Z,76.12
2019-03-09T08:26:19.082Z,76.32
2019-03-09T08:28:53.546Z,76.15
2019-03-09T08:31:24.258Z,76.02
2019-03-09T08:33:57.762Z,75.61
2019-03-09T08:36:29.948Z,76.09
2019-03-09T08:39:09.249Z,75.51
2019-03-09T08:41:39.681Z,75.51
2019-03-09T08:44:17.608Z,75.02
2019-03-09T08:46:47.997Z,74.69
2019-03-09T08:49:24.650Z,74.59
2019-03-09T08:51:52.253Z,74.29
2019-03-09T08:54:27.413Z,73.96
2019-03-09T08:56:57.814Z,73.42
2019-03-09T08:59:34.800Z,72.33
2019-03-09T09:02:05.197Z,72.13
2019-03-09T09:04:39.099Z,71.10
2019-03-09T09:07:09.464Z,70.74
2019-03-09T09:09:40.205Z,70.55
2019-03-09T09:12:10.645Z,70.84
2019-03-09T09:14:44.002Z,71.08
2019-03-09T09:17:14.398Z,70.17
2019-03-09T09:19:59.224Z,69.18
2019-03-09T09:22:22.302Z,69.18
2019-03-09T09:25:20.856Z,68.80
2019-03-09T09:27:53.279Z,69.97
2019-03-09T09:30:26.665Z,68.88
2019-03-09T09:32:57.324Z,68.25
2019-03-09T09:35:31.050Z,67.95
2019-03-09T09:38:01.797Z,67.94
2019-03-09T09:40:54.130Z,67.43
2019-03-09T09:43:13.923Z,67.53
2019-03-09T09:45:44.345Z,67.19
2019-03-09T09:48:16.536Z,66.25
2019-03-09T09:50:46.901Z,65.53
2019-03-09T09:53:19.250Z,64.64
2019-03-09T09:55:53.627Z,64.58
2019-03-09T09:58:24.427Z,65.42
2019-03-09T10:00:57.221Z,65.02
2019-03-09T10:03:27.657Z,65.62
2019-03-09T10:06:03.115Z,66.25
2019-03-09T10:08:34.159Z,65.93
2019-03-09T10:11:09.357Z,65.67
2019-03-09T10:13:41.430Z,65.58
2019-03-09T10:16:28.764Z,65.55
2019-03-09T10:18:59.270Z,65.48
2019-03-09T10:21:41.974Z,65.84
2019-03-09T10:24:06.150Z,66.22
2019-03-09T10:26:40.670Z,66.28
2019-03-09T10:29:12.801Z,66.39
2019-03-09T10:31:44.885Z,66.43
2019-03-09T10:34:16.895Z,66.21
2019-03-09T10:36:59.410Z,66.36
2019-03-09T10:39:26.813Z,65.80
2019-03-09T10:42:02.978Z,65.32
2019-03-09T10:44:33.421Z,64.30
2019-03-09T10:47:11.634Z,63.94
2019-03-09T10:49:48.678Z,63.97
2019-03-09T10:52:22.995Z,63.17
2019-03-09T10:54:58.000Z,62.33
2019-03-09T10:57:30.438Z,61.09
2019-03-09T11:00:03.424Z,61.17
2019-03-09T11:02:37.622Z,60.95
2019-03-09T11:05:14.076Z,60.67
2019-03-09T11:07:46.807Z,60.34
2019-03-09T11:10:20.787Z,60.34
2019-03-09T11:12:52.162Z,60.28
2019-03-09T11:15:29.348Z,60.46
2019-03-09T11:18:00.009Z,59.82
2019-03-09T11:20:35.750Z,59.32
2019-03-09T11:23:07.028Z,59.24
2019-03-09T11:25:44.940Z,59.00
2019-03-09T11:28:15.460Z,58.70
2019-03-09T11:30:52.756Z,58.77
2019-03-09T11:33:23.130Z,59.04
2019-03-09T11:35:56.471Z,59.35
2019-03-09T11:38:26.813Z,58.84
2019-03-09T11:41:05.175Z,58.08
2019-03-09T11:43:34.627Z,56.80
2019-03-09T11:46:08.227Z,55.47
2019-03-09T11:48:38.573Z,55.62
2019-03-09T11:51:16.175Z,55.82
2019-03-09T11:53:45.334Z,54.72
2019-03-09T11:56:17.915Z,54.19
2019-03-09T11:58:51.006Z,53.86
2019-03-09T12:01:23.025Z,53.25
2019-03-09T12:03:55.692Z,52.92
2019-03-09T12:06:26.339Z,51.98
2019-03-09T12:08:58.769Z,51.56
2019-03-09T12:11:32.363Z,50.35
2019-03-09T12:14:03.222Z,49.78
2019-03-09T12:16:42.842Z,49.62
2019-03-09T12:19:14.671Z,49.57
2019-03-09T12:21:47.805Z,49.57
2019-03-09T12:24:20.033Z,49.35
2019-03-09T12:26:56.408Z,49.35
2019-03-09T12:29:27.333Z,49.08
2019-03-09T12:32:09.013Z,49.58
2019-03-09T12:34:42.506Z,49.04
2019-03-09T12:37:13.467Z,49.77
2019-03-09T12:39:44.255Z,49.00
2019-03-09T12:42:14.997Z,48.70
2019-03-09T12:44:47.432Z,49.15
2019-03-09T12:47:23.386Z,49.58
2019-03-09T12:49:52.643Z,49.06
2019-03-09T12:52:26.442Z,49.25
2019-03-09T12:54:58.480Z,49.46
2019-03-09T12:57:37.442Z,49.82
2019-03-09T13:00:12.617Z,49.82
2019-03-09T13:02:59.166Z,49.92
2019-03-09T13:05:21.298Z,49.92
2019-03-09T13:07:54.191Z,50.29
2019-03-09T13:10:24.546Z,50.71
2019-03-09T13:12:58.268Z,51.25
2019-03-09T13:15:28.704Z,51.07
2019-03-09T13:17:59.339Z,50.35
2019-03-09T13:20:29.733Z,50.77
2019-03-09T13:23:03.384Z,52.22
2019-03-09T13:25:35.041Z,55.56
2019-03-09T13:28:08.134Z,61.39
2019-03-09T13:30:40.361Z,66.06
2019-03-09T13:34:15.722Z,68.72
2019-03-09T13:35:50.385Z,67.73
2019-03-09T13:38:25.952Z,66.23
2019-03-09T13:40:58.480Z,68.06
2019-03-09T13:43:33.783Z,69.25
2019-03-09T13:46:04.436Z,70.03
2019-03-09T13:48:41.026Z,72.78
2019-03-09T13:51:13.429Z,72.86
2019-03-09T13:53:58.048Z,72.56
2019-03-09T13:56:30.207Z,70.16
2019-03-09T13:59:06.573Z,68.70
2019-03-09T14:01:38.244Z,68.34
2019-03-09T14:04:15.190Z,67.04
2019-03-09T14:06:45.679Z,66.31
2019-03-09T14:09:22.187Z,67.01
2019-03-09T14:11:55.297Z,67.56
2019-03-09T14:14:27.035Z,68.00
2019-03-09T14:16:57.673Z,69.03
2019-03-09T14:19:28.173Z,69.69
2019-03-09T14:21:58.493Z,70.98
2019-03-09T14:24:31.742Z,71.63
2019-03-09T14:27:02.154Z,73.31
2019-03-09T14:29:36.144Z,74.42
2019-03-09T14:32:07.312Z,77.18
2019-03-09T14:34:39.398Z,79.63
2019-03-09T14:37:14.606Z,81.34
2019-03-09T14:39:46.384Z,81.79
2019-03-09T14:42:18.901Z,82.12
2019-03-09T14:44:56.994Z,82.12
2019-03-09T14:47:28.918Z,82.56
2019-03-09T14:50:20.971Z,83.06
2019-03-09T14:52:51.688Z,83.42
2019-03-09T14:55:25.745Z,83.52
2019-03-09T14:57:56.122Z,82.83
2019-03-09T15:00:33.068Z,81.89
2019-03-09T15:03:03.387Z,80.89
2019-03-09T15:05:44.511Z,80.69
2019-03-09T15:08:22.307Z,81.06
2019-03-09T15:10:54.441Z,80.79
2019-03-09T15:13:32.791Z,80.32
2019-03-09T15:16:03.483Z,79.50
2019-03-09T15:18:36.875Z,79.45
2019-03-09T15:21:07.250Z,78.57
2019-03-09T15:23:39.307Z,79.50
2019-03-09T15:26:11.249Z,79.09
2019-03-09T15:28:41.745Z,78.84
2019-03-09T15:31:13.561Z,79.98
2019-03-09T15:33:51.663Z,79.61
2019-03-09T15:36:24.039Z,79.53
2019-03-09T15:39:00.433Z,78.73
2019-03-09T15:41:29.566Z,75.94
2019-03-09T15:44:04.530Z,71.80
2019-03-09T15:46:37.142Z,68.49
2019-03-09T15:49:12.645Z,70.18
2019-03-09T15:51:43.287Z,68.01
2019-03-09T15:54:22.795Z,65.48
2019-03-09T15:56:53.453Z,65.21
2019-03-09T15:59:25.930Z,66.48
2019-03-09T16:01:56.339Z,65.20
2019-03-09T16:04:28.482Z,64.52
2019-03-09T16:07:03.512Z,64.13
2019-03-09T16:09:37.192Z,63.65
2019-03-09T16:12:07.648Z,62.58
2019-03-09T16:14:56.628Z,63.60
2019-03-09T16:17:28.824Z,68.18
2019-03-09T16:20:02.926Z,71.78
2019-03-09T16:22:35.209Z,73.74
2019-03-09T16:25:10.942Z,76.47
2019-03-09T16:27:41.466Z,78.58
2019-03-09T16:30:15.322Z,78.67
2019-03-09T16:32:46.720Z,79.06
2019-03-09T16:35:25.985Z,79.10
2019-03-09T16:37:54.181Z,79.00
2019-03-09T16:40:27.678Z,79.27
2019-03-09T16:42:59.481Z,79.45
2019-03-09T16:45:32.749Z,79.60
2019-03-09T16:48:04.966Z,78.92
2019-03-09T16:50:46.056Z,75.73
2019-03-09T16:53:14.443Z,72.90
2019-03-09T16:56:33.035Z,71.79
2019-03-09T16:59:23.714Z,70.99
2019-03-09T17:01:56.356Z,70.84
2019-03-09T17:04:27.604Z,70.18
2019-03-09T17:06:58.165Z,70.27
2019-03-09T17:09:30.521Z,69.84
2019-03-09T17:12:01.254Z,69.85
2019-03-09T17:14:57.096Z,69.25
2019-03-09T17:17:18.971Z,68.64
2019-03-09T17:19:51.905Z,68.36
2019-03-09T17:22:32.638Z,67.68
2019-03-09T17:24:59.226Z,67.28
2019-03-09T17:27:28.548Z,67.60
2019-03-09T17:30:59.757Z,67.12
2019-03-09T17:32:38.474Z,67.66
2019-03-09T17:35:10.389Z,67.91
2019-03-09T17:37:42.394Z,67.76
2019-03-09T17:40:39.333Z,68.18
2019-03-09T17:42:51.067Z,68.40
2019-03-09T17:45:27.797Z,68.54
2019-03-09T17:48:01.392Z,68.06
2019-03-09T17:51:03.199Z,68.11
2019-03-09T17:53:24.026Z,68.27
2019-03-09T17:56:07.088Z,67.37
2019-03-09T17:58:37.254Z,67.56
2019-03-09T18:01:33.356Z,67.80
2019-03-09T18:03:44.130Z,68.03
2019-03-09T18:06:18.221Z,68.20
2019-03-09T18:08:48.613Z,69.37
2019-03-09T18:11:37.020Z,69.36
2019-03-09T18:13:55.823Z,69.46
2019-03-09T18:16:33.099Z,69.52
2019-03-09T18:19:01.903Z,69.65
2019-03-09T18:21:38.023Z,69.59
2019-03-09T18:24:08.888Z,69.58
2019-03-09T18:26:49.583Z,69.66
2019-03-09T18:29:21.312Z,69.23
2019-03-09T18:32:13.258Z,69.42
2019-03-09T18:35:45.627Z,69.61
2019-03-09T18:37:27.042Z,69.54
2019-03-09T18:40:07.073Z,69.61
2019-03-09T18:42:37.939Z,69.71
2019-03-09T18:45:12.634Z,69.95
2019-03-09T18:47:43.817Z,69.82
2019-03-09T18:50:18.387Z,69.74
2019-03-09T18:52:51.517Z,70.12
2019-03-09T18:55:31.906Z,69.82
2019-03-09T18:57:59.366Z,70.13
2019-03-09T19:00:34.996Z,70.71
2019-03-09T19:03:07.206Z,71.50
2019-03-09T19:05:39.993Z,71.33
2019-03-09T19:08:12.075Z,71.23
2019-03-09T19:10:44.248Z,70.63
2019-03-09T19:13:15.157Z,70.48
2019-03-09T19:15:50.588Z,70.47
2019-03-09T19:18:21.149Z,70.95
2019-03-09T19:20:55.197Z,71.25
2019-03-09T19:23:27.382Z,71.50
2019-03-09T19:26:07.781Z,71.56
2019-03-09T19:28:38.217Z,71.10
2019-03-09T19:34:04.409Z,70.74
2019-03-09T19:36:52.369Z,70.71
2019-03-09T19:39:13.687Z,70.18
2019-03-09T19:41:49.265Z,70.72
2019-03-09T19:44:22.830Z,70.69
2019-03-09T19:47:17.891Z,70.69
2019-03-09T19:49:30.234Z,70.88
2019-03-09T19:52:10.486Z,70.56
2019-03-09T19:54:40.909Z,70.45
2019-03-09T19:57:20.837Z,70.29
2019-03-09T20:00:49.801Z,70.43
2019-03-09T20:02:33.540Z,69.91
2019-03-09T20:05:13.288Z,69.93
2019-03-09T20:07:46.114Z,69.96
2019-03-09T20:10:17.096Z,70.33
2019-03-09T20:12:49.067Z,70.15
2019-03-09T20:15:21.785Z,69.72
2019-03-09T20:17:54.766Z,69.28
2019-03-09T20:20:26.811Z,69.14
2019-03-09T20:23:01.503Z,69.04
2019-03-09T20:25:37.424Z,68.39
2019-03-09T20:28:08.105Z,68.59
2019-03-09T20:30:43.467Z,69.05
2019-03-09T20:33:14.053Z,69.10
2019-03-09T20:35:56.112Z,68.37
2019-03-09T20:38:28.488Z,68.45
2019-03-09T20:41:08.413Z,68.25
2019-03-09T20:43:35.613Z,68.69
2019-03-09T20:46:06.117Z,68.63
2019-03-09T20:48:40.043Z,68.62
2019-03-09T20:51:21.556Z,68.27
2019-03-09T20:54:00.063Z,68.02
2019-03-09T20:56:29.785Z,67.90
2019-03-09T20:59:00.662Z,68.00
2019-03-09T21:01:56.225Z,67.87
2019-03-09T21:04:19.249Z,68.72
2019-03-09T21:06:59.534Z,69.12
2019-03-09T21:09:30.848Z,68.74
2019-03-09T21:12:07.062Z,68.57
2019-03-09T21:14:38.822Z,68.26
2019-03-09T21:17:13.581Z,67.12
2019-03-09T21:19:43.976Z,66.64
2019-03-09T21:22:19.985Z,66.36
2019-03-09T21:24:50.692Z,66.36
2019-03-09T21:27:23.395Z,66.55
2019-03-09T21:29:53.630Z,66.33
2019-03-09T21:32:31.644Z,65.62
2019-03-09T21:35:06.129Z,65.11
2019-03-09T21:37:49.923Z,64.82
2019-03-09T21:40:19.223Z,64.83
2019-03-09T21:42:49.866Z,64.75
2019-03-09T21:45:21.790Z,64.40
2019-03-09T21:48:04.181Z,64.18
2019-03-09T21:50:36.462Z,64.00
2019-03-09T21:53:22.031Z,64.06
2019-03-09T21:55:47.688Z,63.42
2019-03-09T21:58:27.632Z,63.18
2019-03-09T22:00:59.625Z,63.03
2019-03-09T22:03:41.677Z,63.56
2019-03-09T22:06:16.029Z,63.16
2019-03-09T22:08:50.228Z,63.48
2019-03-09T22:11:31.805Z,63.33
2019-03-09T22:14:03.871Z,62.98
2019-03-09T22:16:39.385Z,62.98
2019-03-09T22:19:10.033Z,62.49
2019-03-09T22:21:46.758Z,62.38
2019-03-09T22:24:17.336Z,62.36
2019-03-09T22:26:55.864Z,62.86
2019-03-09T22:29:26.306Z,63.20
2019-03-09T22:32:00.352Z,62.38
2019-03-09T22:34:32.891Z,62.18
2019-03-09T22:37:14.998Z,62.20
2019-03-09T22:39:45.452Z,61.69
2019-03-09T22:42:19.299Z,61.67
2019-03-09T22:44:49.794Z,61.83
2019-03-09T22:47:21.629Z,62.09
2019-03-09T22:49:52.118Z,62.15
2019-03-09T22:52:30.266Z,62.21
2019-03-09T22:55:01.118Z,62.40
2019-03-09T22:57:32.919Z,62.08
2019-03-09T23:00:03.311Z,62.17
2019-03-09T23:02:37.913Z,62.00
2019-03-09T23:05:11.971Z,61.74
2019-03-09T23:07:46.177Z,61.58
2019-03-09T23:10:17.432Z,61.58
2019-03-09T23:12:49.652Z,61.66
2019-03-09T23:15:20.025Z,60.94
2019-03-09T23:17:50.375Z,60.60
2019-03-09T23:20:24.837Z,60.18
2019-03-09T23:22:55.154Z,60.34
2019-03-09T23:25:29.641Z,60.99
2019-03-09T23:27:59.482Z,61.62
2019-03-09T23:30:45.585Z,62.23
2019-03-09T23:33:07.068Z,62.66
2019-03-09T23:35:40.557Z,62.77
2019-03-09T23:38:12.871Z,63.22
2019-03-09T23:40:53.052Z,63.79
2019-03-09T23:43:18.766Z,63.95
2019-03-09T23:45:49.156Z,64.12
2019-03-09T23:48:19.707Z,64.34
2019-03-09T23:50:51.104Z,64.60
2019-03-09T23:53:21.818Z,64.17
2019-03-09T23:55:57.365Z,64.29
2019-03-09T23:58:29.711Z,64.52
